createdAt,value
2022-11-28T00:03:10.118Z,23.92
2022-11-28T00:08:12.636Z,23.38
2022-11-28T00:13:14.361Z,24.60
2022-11-28T00:18:16.034Z,23.25
2022-11-28T00:23:17.796Z,23.65
2022-11-28T00:28:19.558Z,21.90
2022-11-28T00:33:21.626Z,23.10
2022-11-28T00:38:23.377Z,24.87
2022-11-28T00:43:25.134Z,22.77
2022-11-28T00:48:27.545Z,24.25
2022-11-28T00:53:29.206Z,24.85
2022-11-28T00:58:31.960Z,23.75
2022-11-28T01:03:33.597Z,23.30
2022-11-28T01:08:36.614Z,23.63
2022-11-28T01:13:39.455Z,24.55
2022-11-28T01:18:41.124Z,25.23
2022-11-28T01:23:42.910Z,24.67
2022-11-28T01:28:45.495Z,26.00
2022-11-28T01:33:47.790Z,25.88
2022-11-28T01:38:49.924Z,26.13
2022-11-28T01:43:58.794Z,25.70
2022-11-28T01:49:22.772Z,25.90
2022-11-28T01:54:26.208Z,25.52
2022-11-28T01:59:33.927Z,26.77
2022-11-28T02:04:35.761Z,26.38
2022-11-28T02:09:37.447Z,25.38
2022-11-28T02:15:16.981Z,25.23
2022-11-28T02:20:40.285Z,25.92
2022-11-28T02:26:03.758Z,26.73
2022-11-28T02:31:08.497Z,25.67
2022-11-28T02:36:24.244Z,26.40
2022-11-28T02:41:35.194Z,25.95
2022-11-28T02:47:02.067Z,26.83
2022-11-28T02:52:09.961Z,25.45
2022-11-28T02:57:11.940Z,26.45
2022-11-28T03:02:19.723Z,26.07
2022-11-28T03:07:42.834Z,27.60
2022-11-28T03:18:15.150Z,26.25
2022-11-28T03:23:26.583Z,25.73
2022-11-28T03:28:40.685Z,27.88
2022-11-28T03:33:53.442Z,26.60
2022-11-28T03:39:02.453Z,26.65
2022-11-28T03:44:14.843Z,26.52
2022-11-28T03:49:24.444Z,26.40
2022-11-28T03:54:35.521Z,26.73
2022-11-28T03:59:48.015Z,25.58
2022-11-28T04:05:02.017Z,26.92
2022-11-28T04:10:21.629Z,26.77
2022-11-28T04:15:43.418Z,26.55
2022-11-28T04:20:58.353Z,25.55
2022-11-28T04:26:27.333Z,25.80
2022-11-28T04:31:30.981Z,25.88
2022-11-28T04:36:37.422Z,25.40
2022-11-28T04:41:45.589Z,25.80
2022-11-28T04:46:52.382Z,26.52
2022-11-28T04:52:12.749Z,25.05
2022-11-28T04:57:24.355Z,25.58
2022-11-28T05:02:28.581Z,24.75
2022-11-28T05:07:30.357Z,24.77
2022-11-28T05:12:32.311Z,22.98
2022-11-28T05:17:37.679Z,24.17
2022-11-28T05:22:42.228Z,23.17
2022-11-28T05:27:44.078Z,23.60
2022-11-28T05:32:45.796Z,24.38
2022-11-28T05:37:47.555Z,24.10
2022-11-28T05:42:49.252Z,23.73
2022-11-28T05:47:50.930Z,23.55
2022-11-28T05:52:52.658Z,23.33
2022-11-28T05:57:54.872Z,23.23
2022-11-28T06:03:01.179Z,23.77
2022-11-28T06:08:03.327Z,24.45
2022-11-28T06:13:05.299Z,20.10
2022-11-28T06:18:07.220Z,20.77
2022-11-28T06:23:08.888Z,21.03
2022-11-28T06:28:10.550Z,20.50
2022-11-28T06:33:12.510Z,20.95
2022-11-28T06:38:14.643Z,22.40
2022-11-28T06:43:16.258Z,21.30
2022-11-28T06:48:18.949Z,22.13
2022-11-28T06:53:20.723Z,21.23
2022-11-28T06:58:22.409Z,21.60
2022-11-28T07:03:24.093Z,29.70
2022-11-28T07:08:25.784Z,35.42
2022-11-28T07:13:27.551Z,24.35
2022-11-28T07:18:29.264Z,23.10
2022-11-28T07:23:30.975Z,22.52
2022-11-28T07:28:34.616Z,22.92
2022-11-28T07:33:36.988Z,23.55
2022-11-28T07:38:38.654Z,25.33
2022-11-28T07:43:42.802Z,25.65
2022-11-28T07:48:45.401Z,24.63
2022-11-28T07:58:49.734Z,25.92
2022-11-28T08:03:52.824Z,24.38
2022-11-28T08:08:55.547Z,22.63
2022-11-28T08:19:02.093Z,24.30
2022-11-28T08:24:04.797Z,25.77
2022-11-28T08:29:06.504Z,26.10
2022-11-28T08:34:09.916Z,26.67
2022-11-28T08:39:27.534Z,25.65
2022-11-28T08:44:30.753Z,25.35
2022-11-28T08:49:32.735Z,25.23
2022-11-28T08:54:34.443Z,26.03
2022-11-28T08:59:36.207Z,25.20
2022-11-28T09:04:38.242Z,23.35
2022-11-28T09:09:39.992Z,25.10
2022-11-28T09:14:42.094Z,22.83
2022-11-28T09:19:44.721Z,37.47
2022-11-28T09:24:46.736Z,28.83
2022-11-28T09:29:49.784Z,30.90
2022-11-28T09:34:51.637Z,28.52
2022-11-28T09:40:11.949Z,25.48
2022-11-28T09:45:23.528Z,23.92
2022-11-28T09:50:31.046Z,24.92
2022-11-28T09:55:44.308Z,24.52
2022-11-28T10:06:24.163Z,22.73
2022-11-28T10:11:32.058Z,21.23
2022-11-28T10:16:58.999Z,23.35
2022-11-28T10:22:05.392Z,22.83
2022-11-28T10:27:07.228Z,24.73
2022-11-28T10:32:18.282Z,23.73
2022-11-28T10:37:31.659Z,23.88
2022-11-28T10:42:50.269Z,23.60
2022-11-28T10:48:37.098Z,22.95
2022-11-28T10:53:31.624Z,22.30
2022-11-28T10:58:47.128Z,23.88
2022-11-28T11:03:49.606Z,23.27
2022-11-28T11:08:51.289Z,23.10
2022-11-28T11:14:03.972Z,23.85
2022-11-28T11:19:05.649Z,23.50
2022-11-28T11:24:25.622Z,22.67
2022-11-28T11:29:37.171Z,22.38
2022-11-28T11:34:44.938Z,21.17
2022-11-28T11:39:51.639Z,21.88
2022-11-28T11:44:53.546Z,21.30
2022-11-28T11:50:05.465Z,21.38
2022-11-28T11:55:16.378Z,21.85
2022-11-28T12:00:21.065Z,22.25
2022-11-28T12:05:41.782Z,21.05
2022-11-28T12:11:08.069Z,22.90
2022-11-28T12:16:42.543Z,21.00
2022-11-28T12:21:53.482Z,20.52
2022-11-28T12:27:03.509Z,21.40
2022-11-28T12:32:34.423Z,20.20
2022-11-28T12:38:09.903Z,21.13
2022-11-28T12:43:48.525Z,22.13
2022-11-28T12:49:38.237Z,23.38
2022-11-28T12:54:52.934Z,21.45
2022-11-28T13:00:08.365Z,22.02
2022-11-28T13:05:27.716Z,21.30
2022-11-28T13:10:42.101Z,22.35
2022-11-28T13:16:03.316Z,20.98
2022-11-28T13:21:17.358Z,20.70
2022-11-28T13:26:19.253Z,12.52
2022-11-28T13:31:30.869Z,18.77
2022-11-28T13:42:58.787Z,19.30
2022-11-28T13:47:41.895Z,20.08
2022-11-28T13:52:43.967Z,19.25
2022-11-28T13:57:46.900Z,19.33
2022-11-28T14:02:53.121Z,21.35
2022-11-28T14:07:56.693Z,23.73
2022-11-28T14:13:13.421Z,22.60
2022-11-28T14:18:56.391Z,22.48
2022-11-28T14:24:11.209Z,21.77
2022-11-28T14:29:25.956Z,22.50
2022-11-28T14:34:44.286Z,22.70
2022-11-28T14:39:50.606Z,20.52
2022-11-28T14:45:00.775Z,21.30
2022-11-28T14:50:05.599Z,18.60
2022-11-28T14:55:11.626Z,18.45
2022-11-28T15:00:15.926Z,16.95
2022-11-28T15:05:36.971Z,18.52
2022-11-28T15:11:04.694Z,18.83
2022-11-28T15:16:12.312Z,19.30
2022-11-28T15:21:15.717Z,18.55
2022-11-28T15:26:30.839Z,17.52
2022-11-28T15:31:33.407Z,18.52
2022-11-28T15:36:39.171Z,18.40
2022-11-28T15:41:45.671Z,18.83
2022-11-28T15:46:47.446Z,23.58
2022-11-28T15:51:56.514Z,20.35
2022-11-28T15:56:59.248Z,19.25
2022-11-28T16:02:11.860Z,20.70
2022-11-28T16:07:16.004Z,22.75
2022-11-28T16:12:18.912Z,16.48
2022-11-28T16:17:26.241Z,18.13
2022-11-28T16:22:36.888Z,18.27
2022-11-28T16:27:42.101Z,18.77
2022-11-28T16:32:43.842Z,17.02
2022-11-28T16:37:45.591Z,17.13
2022-11-28T16:42:55.041Z,17.42
2022-11-28T16:48:08.745Z,17.15
2022-11-28T16:53:47.760Z,16.58
2022-11-28T16:58:52.457Z,18.27
2022-11-28T17:03:56.608Z,19.75
2022-11-28T17:08:58.412Z,18.80
2022-11-28T17:14:02.708Z,16.33
2022-11-28T17:19:04.935Z,16.23
2022-11-28T17:24:16.262Z,14.70
2022-11-28T17:29:18.487Z,13.93
2022-11-28T17:34:23.130Z,15.80
2022-11-28T17:39:25.059Z,15.63
2022-11-28T17:44:32.092Z,15.77
2022-11-28T17:49:34.871Z,15.45
2022-11-28T17:54:36.673Z,14.18
2022-11-28T17:59:38.528Z,14.63
2022-11-28T18:04:40.918Z,15.60
2022-11-28T18:09:43.250Z,14.80
2022-11-28T18:19:47.744Z,14.45
2022-11-28T18:24:49.396Z,13.75
2022-11-28T18:29:51.262Z,14.55
2022-11-28T18:34:53.087Z,14.57
2022-11-28T18:39:54.844Z,14.77
2022-11-28T18:49:59.717Z,13.85
2022-11-28T19:00:06.325Z,14.38
2022-11-28T19:05:08.685Z,13.32
2022-11-28T19:15:14.383Z,15.82
2022-11-28T19:20:16.150Z,15.13
2022-11-28T19:25:17.779Z,15.93
2022-11-28T19:30:19.497Z,16.70
2022-11-28T19:35:21.595Z,17.90
2022-11-28T19:40:23.370Z,17.33
2022-11-28T19:45:25.727Z,17.13
2022-11-28T19:50:27.599Z,17.50
2022-11-28T19:55:29.508Z,16.00
2022-11-28T20:00:31.258Z,18.17
2022-11-28T20:05:38.738Z,18.00
2022-11-28T20:10:40.600Z,17.95
2022-11-28T20:15:42.432Z,16.85
2022-11-28T20:20:44.178Z,18.77
2022-11-28T20:25:45.893Z,20.92
2022-11-28T20:30:47.802Z,19.77
2022-11-28T20:35:49.848Z,19.07
2022-11-28T20:40:51.774Z,24.33
2022-11-28T20:45:53.498Z,22.80
2022-11-28T20:50:55.493Z,22.37
2022-11-28T20:56:02.847Z,22.73
2022-11-28T21:01:05.456Z,24.35
2022-11-28T21:06:07.421Z,23.23
2022-11-28T21:11:43.537Z,22.80
2022-11-28T21:16:39.938Z,23.15
2022-11-28T21:21:43.148Z,22.80
2022-11-28T21:26:49.718Z,21.30
2022-11-28T21:31:54.765Z,21.40
2022-11-28T21:36:56.578Z,20.97
2022-11-28T21:41:58.242Z,22.33
2022-11-28T21:47:00.016Z,22.65
2022-11-28T21:52:03.437Z,20.23
2022-11-28T21:57:05.211Z,21.50
2022-11-28T22:02:11.512Z,21.55
2022-11-28T22:07:13.842Z,23.52
2022-11-28T22:12:15.576Z,22.02
2022-11-28T22:17:17.246Z,21.58
2022-11-28T22:22:19.352Z,22.73
2022-11-28T22:27:21.691Z,19.92
2022-11-28T22:32:23.436Z,21.33
2022-11-28T22:37:25.143Z,21.80
2022-11-28T22:42:27.358Z,22.27
2022-11-28T22:47:29.259Z,20.90
2022-11-28T22:52:31.191Z,21.35
2022-11-28T22:57:32.917Z,20.33
2022-11-28T23:02:35.960Z,18.23
2022-11-28T23:07:37.817Z,19.40
2022-11-28T23:12:40.673Z,22.13
2022-11-28T23:17:43.179Z,22.60
2022-11-28T23:22:45.025Z,22.83
2022-11-28T23:27:47.397Z,22.50
2022-11-28T23:32:49.240Z,20.38
2022-11-28T23:37:51.001Z,21.15
2022-11-28T23:42:52.714Z,21.77
2022-11-28T23:47:54.372Z,19.95
2022-11-28T23:52:56.035Z,20.23
2022-11-28T23:57:57.798Z,21.25
